SYCO2: Spavinaw Creek Nr Sycamore,Ok

Data processed at Tue May 21 2019 22:10


All information presented herein is the property of the government of the United States of America and may be revised or deleted at any time without prior notice.
Dissemination of this information without the expressed written consent of the Public Affairs Office, Tulsa District U.S. Army Corps of Engineers is strictly prohibited.
These data are gathered electronically and, as presented, have not undergone any form of quality control. These data are not guaranteed to be valid or correct.
Go to home page.
Go to station list.
Go to home page.

Upstream stations:

Downstream station:
Previous Day
Next Day
Current Day
    
SHEF ID:       SYCO2     Spavinaw Creek near Sycamore, OK
STATION TYPE:  
Regulating: Stage =    20.00, Flow =    30765

               PRECIP     STAGE  STAGE(2)  RIV-FLOW  BAT-LOAD
                   in        ft        ft       cfs      volt
              Ccp-Rev   Ccp-Rev   Ccp-Rev   Ccp-Rev   Ccp-Rev
(US/Central)
05/21 00:00      0.85      5.23      6.27       194     12.41
05/21 01:00      1.09      5.60      6.27       302     12.41
05/21 02:00      0.07      6.14      6.27       511     12.41
05/21 03:00      0.01      6.18      6.28       529     12.41
05/21 04:00      0.00      6.64      6.67       761     12.25
05/21 05:00      0.00      7.63      7.62      1510     12.33
05/21 06:00      0.00      7.80      7.87      1680     12.25
05/21 07:00      0.00      7.66      7.65      1540     12.25
05/21 08:00      0.00      7.54      7.56      1420     12.41
05/21 09:00      0.00      7.37      7.50      1250     12.65
05/21 10:00      0.35      7.35      7.48      1229     12.49
05/21 11:00      0.80      7.48      7.52      1360     12.33
05/21 12:00      0.10      7.92      7.97      1800     12.41
05/21 13:00      0.04      8.21      8.19      2090     12.89
05/21 14:00      0.09      8.60      8.58      2508     12.89
05/21 15:00      0.03      9.16      9.15      3177     12.97
05/21 16:00      0.02      9.55      9.49      3684     13.05
05/21 17:00      0.00      9.40      9.51      3485     13.13
05/21 18:00      0.01      9.14      9.30      3151     13.13
05/21 19:00      0.00      9.09      9.25      3089     12.89
05/21 20:00      0.00      8.88      9.22      2833     12.73
05/21 21:00      0.00      8.69      9.20      2611     12.57
05/21 22:00      ----      ----      ----      ----      ----
05/21 23:00      ----      ----      ----      ----      ----